Time;durP1;ratioP1;P1;durP2;ratioP2;P2;SDS_P1;SDS_P2;PMS_P1;PMS_P2;Temp;Humidity;BMP_temperature;BMP_pressure;BME280_temperature;BME280_humidity;BME280_pressure;Samples;Min_cycle;Max_cycle;Signal;HPM_P1;HPM_P2
2021/09/26 00:00:24;;;;;;;7.85;5.20;;;;;;;16.71;59.48;100270.06;4319237;33;34959;-89
2021/09/26 00:02:52;;;;;;;9.40;5.28;;;;;;;16.67;59.21;100271.00;4330357;33;32710;-91
2021/09/26 00:05:19;;;;;;;6.37;4.95;;;;;;;16.71;59.24;100274.47;4331116;33;34908;-89
2021/09/26 00:07:47;;;;;;;6.60;5.15;;;;;;;16.80;58.78;100280.41;4330543;33;34079;-88
2021/09/26 00:10:15;;;;;;;6.05;4.68;;;;;;;16.44;59.78;100281.00;4331980;33;34073;-89
2021/09/26 00:12:43;;;;;;;5.70;4.93;;;;;;;16.58;59.42;100281.69;4330525;33;33566;-89
2021/09/26 00:15:15;;;;;;;7.12;4.95;;;;;;;16.56;59.40;100279.97;4330910;33;33990;-89
2021/09/26 00:17:44;;;;;;;;;;;;;;;16.53;59.46;100278.25;4330982;33;34657;-89
2021/09/26 00:20:12;;;;;;;6.15;5.00;;;;;;;16.33;59.94;100277.66;4318794;33;34423;-89
2021/09/26 00:22:40;;;;;;;7.45;5.37;;;;;;;16.33;59.95;100271.56;4330779;33;33635;-88
2021/09/26 00:25:09;;;;;;;6.97;5.22;;;;;;;16.39;59.84;100279.34;4318519;33;34264;-87
2021/09/26 00:27:37;;;;;;;6.57;4.97;;;;;;;16.31;60.01;100279.44;4331082;33;34452;-87
2021/09/26 00:30:08;;;;;;;7.43;5.32;;;;;;;16.34;59.64;100274.16;4330950;33;34769;-88
2021/09/26 00:32:37;;;;;;;7.10;5.12;;;;;;;16.32;59.57;100281.19;4330166;33;33047;-89
2021/09/26 00:35:04;;;;;;;7.70;5.40;;;;;;;16.26;59.69;100276.03;4330453;33;34148;-89
2021/09/26 00:37:32;;;;;;;7.07;5.37;;;;;;;16.24;59.51;100278.69;4330588;33;34855;-89
2021/09/26 00:40:00;;;;;;;6.43;5.37;;;;;;;16.25;59.55;100282.19;4330329;33;34335;-89
2021/09/26 00:42:27;;;;;;;5.55;4.80;;;;;;;16.19;59.81;100279.62;4330527;33;34306;-89
2021/09/26 00:44:55;;;;;;;9.40;5.93;;;;;;;16.20;59.75;100286.62;4330377;33;34627;-89
2021/09/26 00:47:23;;;;;;;7.65;5.35;;;;;;;16.16;59.72;100287.59;4330479;33;35413;-89
2021/09/26 00:49:50;;;;;;;7.10;5.70;;;;;;;16.16;59.96;100283.19;4329908;33;34909;-89
2021/09/26 00:52:19;;;;;;;8.10;5.47;;;;;;;16.06;60.31;100288.59;4318630;33;33455;-91
2021/09/26 00:54:48;;;;;;;9.68;5.70;;;;;;;16.18;60.04;100284.06;4330176;33;34254;-89
2021/09/26 00:57:15;;;;;;;6.90;5.50;;;;;;;16.17;59.95;100286.69;4318235;33;34831;-88
2021/09/26 00:59:42;;;;;;;8.13;5.22;;;;;;;16.07;60.10;100287.69;4318415;33;34278;-90
2021/09/26 01:02:10;;;;;;;6.75;5.47;;;;;;;16.12;60.01;100294.63;4330559;33;33789;-88
2021/09/26 01:04:39;;;;;;;8.15;5.40;;;;;;;16.12;60.00;100297.25;4330563;33;34004;-89
2021/09/26 01:07:13;;;;;;;7.28;5.50;;;;;;;16.10;59.88;100300.78;4330215;33;34925;-89
2021/09/26 01:10:03;;;;;;;6.75;5.40;;;;;;;16.13;59.89;100296.38;4330144;33;34171;-89
2021/09/26 01:12:47;;;;;;;6.82;5.32;;;;;;;16.02;60.33;100300.88;4318353;33;33528;-89
2021/09/26 01:15:23;;;;;;;9.02;5.05;;;;;;;16.03;60.33;100301.75;4318109;33;33358;-90
2021/09/26 01:17:55;;;;;;;7.53;5.60;;;;;;;16.05;60.17;100297.34;4330349;33;34784;-91
2021/09/26 01:20:42;;;;;;;6.55;5.10;;;;;;;15.97;60.46;100300.12;4331708;33;34454;-90
2021/09/26 01:23:22;;;;;;;6.18;5.12;;;;;;;15.88;60.65;100307.25;4318218;33;34216;-90
2021/09/26 01:26:24;;;;;;;6.50;5.60;;;;;;;15.96;60.29;100307.97;4330320;33;33398;-91
2021/09/26 01:29:10;;;;;;;7.50;5.28;;;;;;;15.89;60.28;100299.34;4330337;33;33570;-89
2021/09/26 01:31:49;;;;;;;9.15;5.25;;;;;;;15.86;60.23;100307.25;4330359;33;33680;-88
2021/09/26 01:34:24;;;;;;;7.00;5.10;;;;;;;15.91;60.06;100312.41;4318208;33;34008;-90
2021/09/26 01:37:16;;;;;;;10.40;5.72;;;;;;;15.93;60.04;100305.41;4330206;33;34808;-90
2021/09/26 01:39:48;;;;;;;6.18;4.93;;;;;;;15.84;60.07;100297.66;4316051;33;34665;-89
2021/09/26 01:42:22;;;;;;;;;;;;;;;15.81;60.38;100300.34;4318460;33;33981;-88
2021/09/26 01:44:56;;;;;;;6.80;4.80;;;;;;;15.83;60.33;100296.78;4317889;33;33615;-89
2021/09/26 01:47:32;;;;;;;7.37;5.35;;;;;;;15.84;60.08;100297.66;4317832;33;34249;-90
2021/09/26 01:50:01;;;;;;;9.43;5.32;;;;;;;15.80;60.10;100295.97;4330155;33;34369;-88
2021/09/26 01:52:35;;;;;;;7.25;5.37;;;;;;;15.69;60.41;100301.34;4329700;33;33470;-89
2021/09/26 01:55:04;;;;;;;7.03;5.22;;;;;;;15.75;60.34;100297.78;4329824;33;32884;-89
2021/09/26 01:57:33;;;;;;;6.50;5.40;;;;;;;15.76;60.18;100297.75;4330255;33;34795;-89
2021/09/26 02:00:02;;;;;;;7.50;5.75;;;;;;;15.71;60.43;100296.09;4317918;33;34106;-89
2021/09/26 02:02:39;;;;;;;7.70;5.62;;;;;;;15.75;60.33;100297.78;4328822;33;34978;-90
2021/09/26 02:05:07;;;;;;;6.87;5.20;;;;;;;15.64;60.64;100297.94;4330063;33;34228;-90
2021/09/26 02:07:42;;;;;;;8.07;5.28;;;;;;;15.75;59.99;100297.78;4317907;33;34774;-90
2021/09/26 02:10:11;;;;;;;8.65;6.35;;;;;;;15.67;60.38;100294.37;4330119;33;34476;-90
2021/09/26 02:12:39;;;;;;;9.60;6.22;;;;;;;15.56;60.94;100295.41;4330218;33;35227;-91
2021/09/26 02:15:13;;;;;;;7.18;6.10;;;;;;;15.61;60.96;100294.47;4329838;33;33515;-90
2021/09/26 02:17:44;;;;;;;8.48;6.07;;;;;;;15.54;61.12;100291.94;4329919;33;34250;-89
2021/09/26 02:20:14;;;;;;;7.03;5.68;;;;;;;15.50;61.47;100303.34;4330103;33;34817;-90
2021/09/26 02:22:42;;;;;;;6.82;6.12;;;;;;;15.61;61.02;100289.22;4317627;33;34088;-90
2021/09/26 02:25:11;;;;;;;7.07;6.10;;;;;;;15.60;61.04;100290.97;4317552;33;33715;-91
2021/09/26 02:27:39;;;;;;;8.32;5.93;;;;;;;15.67;60.73;100292.62;4317837;33;34790;-90
2021/09/26 02:30:09;;;;;;;10.10;5.90;;;;;;;15.60;60.79;100293.59;4317861;33;35289;-90
2021/09/26 02:32:37;;;;;;;8.90;6.10;;;;;;;15.59;60.63;100302.38;4329327;33;33555;-91
2021/09/26 02:35:05;;;;;;;7.72;6.60;;;;;;;15.64;60.41;100299.69;4329575;33;32900;-90
2021/09/26 02:37:34;;;;;;;7.75;5.80;;;;;;;15.56;60.69;100307.66;4329588;33;34857;-90
2021/09/26 02:40:04;;;;;;;9.07;5.80;;;;;;;15.45;60.94;100304.28;4317494;33;34583;-90
2021/09/26 02:42:31;;;;;;;8.13;6.07;;;;;;;15.33;61.02;100305.25;4329575;33;34255;-90
2021/09/26 02:45:18;;;;;;;6.32;5.12;;;;;;;15.42;60.64;100310.41;4329644;33;33672;-90
2021/09/26 02:47:52;;;;;;;6.87;5.37;;;;;;;15.49;60.09;100305.97;4317881;33;35187;-89
2021/09/26 02:50:21;;;;;;;9.00;6.10;;;;;;;15.53;59.91;100303.31;4329506;33;35587;-89
2021/09/26 02:52:49;;;;;;;8.23;6.32;;;;;;;15.32;60.36;100300.91;4317608;33;34301;-90
2021/09/26 02:55:16;;;;;;;7.37;5.80;;;;;;;15.45;60.10;100312.16;4317077;33;34280;-91
2021/09/26 02:57:45;;;;;;;8.55;5.57;;;;;;;15.40;60.21;100311.31;4317111;33;34277;-91
2021/09/26 03:00:13;;;;;;;6.87;6.18;;;;;;;15.36;60.42;100320.06;4329510;33;34343;-91
2021/09/26 03:02:40;;;;;;;6.90;5.72;;;;;;;15.28;60.57;100312.31;4329442;33;34410;-91
2021/09/26 03:05:09;;;;;;;7.82;5.45;;;;;;;15.23;60.87;100319.38;4329776;33;33762;-91
2021/09/26 03:07:36;;;;;;;9.55;6.40;;;;;;;15.16;60.93;100312.44;4328983;33;33429;-91
2021/09/26 03:10:07;;;;;;;7.40;6.25;;;;;;;15.30;60.42;100307.94;4316997;33;33267;-91
2021/09/26 03:12:35;;;;;;;7.80;6.43;;;;;;;15.20;60.59;100308.91;4329083;33;34164;-90
2021/09/26 03:15:04;;;;;;;9.32;5.78;;;;;;;15.27;60.33;100315.81;4332612;33;33671;-91
2021/09/26 03:17:32;;;;;;;6.10;5.50;;;;;;;15.26;60.45;100318.47;4331049;33;33310;-90
2021/09/26 03:20:00;;;;;;;7.72;6.20;;;;;;;15.13;60.81;100316.84;4331137;33;34634;-91
2021/09/26 03:22:27;;;;;;;7.62;6.35;;;;;;;15.13;60.77;100311.59;4331033;33;34198;-90
2021/09/26 03:24:55;;;;;;;8.27;6.37;;;;;;;15.15;60.85;100315.94;4331456;33;33030;-91
2021/09/26 03:27:23;;;;;;;8.27;6.10;;;;;;;15.26;60.20;100311.44;4331834;33;34808;-91
2021/09/26 03:29:51;;;;;;;9.43;7.00;;;;;;;15.16;60.46;100317.69;4333085;33;35506;-91
2021/09/26 03:32:19;;;;;;;8.23;5.93;;;;;;;15.13;60.39;100316.84;4331397;33;34163;-90
2021/09/26 03:34:47;;;;;;;8.10;5.75;;;;;;;15.03;60.67;100316.06;4318824;33;33671;-91
2021/09/26 03:37:14;;;;;;;9.40;7.25;;;;;;;15.06;60.55;100316.03;4331026;33;34780;-90
2021/09/26 03:39:42;;;;;;;10.60;6.68;;;;;;;15.14;60.56;100318.59;4331070;33;35520;-90
2021/09/26 03:42:10;;;;;;;9.52;6.90;;;;;;;14.97;61.16;100318.75;4318755;33;34537;-91
2021/09/26 03:44:38;;;;;;;7.45;6.30;;;;;;;15.08;61.15;100314.28;4318820;33;33150;-91
2021/09/26 03:47:06;;;;;;;8.25;6.65;;;;;;;15.11;60.75;100309.00;4306949;33;33559;-90
2021/09/26 03:49:35;;;;;;;10.50;6.87;;;;;;;15.14;60.52;100313.34;4318757;33;34138;-90
2021/09/26 03:52:03;;;;;;;8.35;6.65;;;;;;;15.07;60.63;100322.16;4307152;33;34338;-91
2021/09/26 03:54:31;;;;;;;8.27;6.78;;;;;;;15.12;60.55;100312.50;4319587;33;32723;-91
2021/09/26 03:56:59;;;;;;;9.75;6.32;;;;;;;15.02;60.91;100310.84;4331874;33;34080;-91
2021/09/26 03:59:26;;;;;;;10.20;6.47;;;;;;;14.92;61.33;100312.69;4331873;33;35424;-91
2021/09/26 04:01:56;;;;;;;7.97;7.10;;;;;;;15.08;60.67;100314.28;4319583;33;33196;-91
2021/09/26 04:04:24;;;;;;;8.88;7.03;;;;;;;14.99;60.70;100309.13;4331685;33;33801;-91
2021/09/26 04:06:53;;;;;;;10.88;7.20;;;;;;;14.84;61.10;100309.28;4331379;33;34074;-91
2021/09/26 04:09:20;;;;;;;11.00;7.20;;;;;;;14.78;61.27;100317.19;4330982;33;34531;-90
2021/09/26 04:11:49;;;;;;;9.52;7.00;;;;;;;14.89;60.90;100302.25;4306340;33;33480;-89
2021/09/26 04:14:16;;;;;;;9.18;7.40;;;;;;;14.97;60.77;100310.03;4330485;33;33386;-89
2021/09/26 04:16:44;;;;;;;8.98;7.35;;;;;;;14.72;61.71;100314.63;4318226;33;33564;-90
2021/09/26 04:19:12;;;;;;;8.40;7.15;;;;;;;14.85;61.27;100316.25;4318055;33;33967;-91
2021/09/26 04:21:40;;;;;;;8.63;7.07;;;;;;;14.82;61.21;100309.28;4319052;33;34070;-90
2021/09/26 04:24:07;;;;;;;8.05;7.25;;;;;;;14.78;61.25;100307.59;4330253;33;32949;-90
2021/09/26 04:26:35;;;;;;;9.27;6.82;;;;;;;14.83;60.92;100307.56;4330002;33;33730;-90
2021/09/26 04:29:03;;;;;;;8.45;7.15;;;;;;;14.91;60.46;100310.94;4330580;33;34625;-90
2021/09/26 04:31:30;;;;;;;9.23;7.35;;;;;;;14.80;61.01;100311.06;4306312;33;33520;-90
2021/09/26 04:33:59;;;;;;;8.10;6.65;;;;;;;14.69;61.35;100306.81;4330390;33;33653;-90
2021/09/26 04:36:26;;;;;;;9.52;7.18;;;;;;;14.89;60.70;100308.34;4330641;33;34120;-90
2021/09/26 04:38:54;;;;;;;11.27;7.28;;;;;;;14.88;60.61;100303.12;4318468;33;34275;-90
2021/09/26 04:41:22;;;;;;;8.55;6.60;;;;;;;14.95;60.30;100311.81;4330546;33;33481;-90
2021/09/26 04:43:49;;;;;;;8.18;6.68;;;;;;;14.84;60.70;100309.28;4330573;33;33037;-90
2021/09/26 04:46:17;;;;;;;8.40;7.30;;;;;;;14.92;60.55;100312.69;4330708;33;33887;-90
2021/09/26 04:48:45;;;;;;;9.82;7.07;;;;;;;14.71;61.04;100303.25;4330620;33;34114;-90
2021/09/26 04:51:12;;;;;;;10.45;7.60;;;;;;;14.88;60.53;100308.37;4318642;33;34464;-90
2021/09/26 04:53:42;;;;;;;9.65;7.72;;;;;;;14.86;60.69;100312.72;4318333;33;32892;-91
2021/09/26 04:56:10;;;;;;;10.02;7.68;;;;;;;14.88;60.67;100317.06;4330561;33;34818;-90
2021/09/26 04:58:38;;;;;;;9.23;7.50;;;;;;;14.79;61.06;100318.91;4306249;33;33972;-90
2021/09/26 05:01:06;;;;;;;11.48;7.43;;;;;;;14.68;61.27;100323.38;4330439;33;35544;-91
2021/09/26 05:03:34;;;;;;;11.25;8.05;;;;;;;14.79;61.23;100326.78;4330421;33;34351;-90
2021/09/26 05:06:01;;;;;;;8.27;7.15;;;;;;;14.67;61.63;100326.88;4330454;33;33238;-91
2021/09/26 05:08:29;;;;;;;13.88;8.57;;;;;;;14.76;61.48;100322.41;4318216;33;35654;-90
2021/09/26 05:10:57;;;;;;;12.52;8.27;;;;;;;14.76;61.37;100322.41;4318152;33;34333;-91
2021/09/26 05:13:24;;;;;;;11.45;8.40;;;;;;;14.92;60.98;100323.16;4326548;33;158465;-90
2021/09/26 05:15:52;;;;;;;11.90;8.18;;;;;;;14.99;60.96;100327.47;4330449;33;34250;-90
2021/09/26 05:18:20;;;;;;;11.32;7.82;;;;;;;15.00;61.05;100325.72;4330280;33;34590;-90
2021/09/26 05:20:52;;;;;;;11.30;8.30;;;;;;;14.91;61.44;100331.91;4318256;33;33582;-90
2021/09/26 05:23:20;;;;;;;11.38;8.45;;;;;;;14.81;61.77;100330.22;4330387;33;34528;-90
2021/09/26 05:25:48;;;;;;;9.02;7.60;;;;;;;15.00;61.59;100331.81;4318308;33;33646;-90
2021/09/26 05:28:16;;;;;;;9.82;8.52;;;;;;;14.85;62.24;100326.72;4330527;33;34274;-90
2021/09/26 05:30:44;;;;;;;11.45;8.23;;;;;;;15.14;61.23;100322.06;4330122;33;34260;-90
2021/09/26 05:33:12;;;;;;;9.68;8.00;;;;;;;15.14;61.44;100323.81;4330374;33;33723;-90
2021/09/26 05:35:40;;;;;;;9.68;8.35;;;;;;;15.22;61.65;100321.97;4305970;33;33432;-90
2021/09/26 05:38:08;;;;;;;10.57;8.23;;;;;;;15.41;61.50;100318.28;4330077;33;34002;-91
2021/09/26 05:40:35;;;;;;;11.98;8.48;;;;;;;15.58;60.86;100317.22;4330443;33;33678;-91
2021/09/26 05:43:03;;;;;;;11.65;8.25;;;;;;;15.70;60.68;100321.44;4318236;33;33542;-91
2021/09/26 05:45:31;;;;;;;9.20;7.78;;;;;;;15.87;60.18;100323.84;4330102;33;34788;-91
2021/09/26 05:47:58;;;;;;;8.77;7.68;;;;;;;15.90;60.49;100329.91;4330387;33;35497;-91
2021/09/26 05:50:26;;;;;;;10.93;7.90;;;;;;;16.06;60.25;100331.47;4318798;33;34297;-92
2021/09/26 05:52:54;;;;;;;8.70;7.72;;;;;;;16.20;60.03;100334.75;4318908;33;34250;-91
2021/09/26 05:55:22;;;;;;;9.68;8.02;;;;;;;16.40;59.83;100334.47;4318866;33;33300;-91
2021/09/26 05:57:49;;;;;;;11.60;9.02;;;;;;;16.54;59.72;100335.16;4330939;33;34633;-89
2021/09/26 06:00:18;;;;;;;15.30;8.95;;;;;;;16.87;59.00;100329.34;4317864;33;33867;-90
2021/09/26 06:02:46;;;;;;;13.02;9.30;;;;;;;17.04;58.65;100333.41;4330138;33;33573;-89
2021/09/26 06:05:13;;;;;;;12.07;8.88;;;;;;;17.32;57.83;100335.50;4317958;33;33435;-90
2021/09/26 06:07:41;;;;;;;14.75;10.50;;;;;;;17.39;58.11;100328.37;4329939;33;33953;-90
2021/09/26 06:10:09;;;;;;;14.18;10.35;;;;;;;17.60;57.85;100330.59;4318041;33;34123;-90
2021/09/26 06:12:40;;;;;;;12.68;10.02;;;;;;;17.82;57.73;100333.66;4330223;33;33682;-89
2021/09/26 06:15:08;;;;;;;11.77;10.00;;;;;;;17.97;57.75;100339.44;4330362;33;34025;-89
2021/09/26 06:17:37;;;;;;;14.80;9.98;;;;;;;18.17;57.59;100345.16;4330281;33;34426;-89
2021/09/26 06:20:05;;;;;;;13.10;10.48;;;;;;;18.36;57.34;100348.22;4318055;33;33909;-90
2021/09/26 06:22:32;;;;;;;14.25;10.50;;;;;;;18.50;57.41;100346.16;4318159;33;33634;-90
2021/09/26 06:25:00;;;;;;;17.42;10.43;;;;;;;18.73;56.96;100345.63;4317733;33;33307;-90
2021/09/26 06:27:28;;;;;;;12.95;9.95;;;;;;;18.89;56.57;100344.34;4329859;33;34804;-90
2021/09/26 06:29:55;;;;;;;13.18;10.80;;;;;;;19.01;56.43;100344.03;4329719;33;33447;-90
2021/09/26 06:32:23;;;;;;;13.85;10.73;;;;;;;19.26;55.94;100339.81;4317887;33;34725;-91
2021/09/26 06:34:50;;;;;;;12.85;10.35;;;;;;;19.55;55.13;100337.28;4329901;33;35171;-91
2021/09/26 06:37:18;;;;;;;14.45;9.73;;;;;;;19.59;55.26;100343.31;4329962;33;35760;-90
2021/09/26 06:39:46;;;;;;;12.60;9.77;;;;;;;19.71;54.73;100342.09;4330206;33;34031;-90
2021/09/26 06:42:13;;;;;;;14.87;10.65;;;;;;;19.85;54.18;100334.69;4305808;33;33647;-90
2021/09/26 06:44:41;;;;;;;11.77;9.15;;;;;;;20.05;53.82;100342.88;4319398;33;34142;-90
2021/09/26 06:47:08;;;;;;;12.82;10.00;;;;;;;20.27;53.48;100338.69;4318658;33;34719;-90
2021/09/26 06:49:36;;;;;;;14.48;9.93;;;;;;;20.34;53.63;100334.06;4307845;33;33528;-92
2021/09/26 06:52:04;;;;;;;11.15;9.50;;;;;;;20.47;53.48;100336.28;4331774;33;32890;-92
2021/09/26 06:54:32;;;;;;;13.80;10.45;;;;;;;20.52;53.53;100347.56;4308623;33;32907;-91
2021/09/26 06:56:59;;;;;;;152.25;117.03;;;;;;;20.57;53.54;100345.66;4331828;33;34586;-85
2021/09/26 06:59:27;;;;;;;112.12;90.35;;;;;;;20.62;54.28;100351.66;4333122;33;34202;-85
2021/09/26 07:01:55;;;;;;;58.22;47.13;;;;;;;20.89;53.67;100361.28;4332234;33;33547;-85
2021/09/26 07:04:23;;;;;;;23.12;18.27;;;;;;;20.88;54.27;100353.44;4332492;33;34125;-90
2021/09/26 07:06:51;;;;;;;21.75;15.15;;;;;;;20.99;53.81;100358.38;4320125;33;34960;-89
2021/09/26 07:09:19;;;;;;;17.35;11.63;;;;;;;21.12;53.22;100357.94;4320719;33;34245;-90
2021/09/26 07:11:47;;;;;;;14.07;11.45;;;;;;;21.23;53.34;100354.91;4333000;33;33732;-91
2021/09/26 07:14:14;;;;;;;13.70;11.20;;;;;;;21.35;53.00;100359.75;4332474;33;34033;-91
2021/09/26 07:16:42;;;;;;;16.27;11.00;;;;;;;21.60;52.63;100355.34;4332558;33;34810;-90
2021/09/26 07:19:12;;;;;;;13.93;11.25;;;;;;;21.59;52.62;100353.59;4333056;33;34143;-90
2021/09/26 07:21:39;;;;;;;19.42;9.98;;;;;;;21.61;52.75;100354.41;4332756;33;34277;-91
2021/09/26 07:24:07;;;;;;;12.65;10.60;;;;;;;21.56;52.96;100348.44;4332794;33;34498;-91
2021/09/26 07:26:35;;;;;;;13.77;9.75;;;;;;;21.61;52.59;100351.75;4320051;33;34992;-91
2021/09/26 07:29:02;;;;;;;13.23;9.98;;;;;;;21.83;52.08;100358.00;4332766;33;33745;-91
2021/09/26 07:31:30;;;;;;;12.98;10.20;;;;;;;21.81;52.01;100354.53;4332733;33;33518;-91
2021/09/26 07:33:58;;;;;;;12.70;10.05;;;;;;;21.85;51.90;100353.53;4332209;33;34694;-91
2021/09/26 07:36:25;;;;;;;12.07;9.98;;;;;;;21.90;51.84;100359.53;4320324;33;34628;-89
2021/09/26 07:38:53;;;;;;;11.55;9.40;;;;;;;22.01;51.69;100362.63;4332375;33;34180;-89
2021/09/26 07:41:21;;;;;;;11.25;8.93;;;;;;;22.10;51.31;100359.66;4320234;33;33557;-90
2021/09/26 07:43:48;;;;;;;14.20;8.32;;;;;;;22.22;51.01;100364.47;4332187;33;33826;-89
2021/09/26 07:46:16;;;;;;;11.00;8.10;;;;;;;22.15;51.41;100360.34;4332497;33;33876;-87
2021/09/26 07:48:44;;;;;;;12.13;8.00;;;;;;;21.87;51.69;100364.09;4333422;33;34241;-88
2021/09/26 07:51:11;;;;;;;10.82;7.87;;;;;;;21.86;51.38;100363.22;4320321;33;33467;-87
2021/09/26 07:53:39;;;;;;;8.70;7.37;;;;;;;21.97;51.24;100368.09;4332312;33;34211;-88
2021/09/26 07:56:06;;;;;;;13.52;7.87;;;;;;;22.03;51.10;100367.88;4320196;33;34735;-87
2021/09/26 07:58:34;;;;;;;10.10;8.02;;;;;;;22.30;50.59;100368.63;4333331;33;34146;-86
2021/09/26 08:01:02;;;;;;;11.80;7.78;;;;;;;22.36;50.36;100371.00;4332563;33;33208;-87
2021/09/26 08:03:30;;;;;;;9.45;7.22;;;;;;;22.43;50.08;100370.72;4331979;33;34034;-87
2021/09/26 08:05:58;;;;;;;10.27;8.10;;;;;;;22.29;50.48;100373.03;4319880;33;35379;-86
2021/09/26 08:08:25;;;;;;;9.93;8.15;;;;;;;22.18;50.57;100373.44;4320099;33;34223;-88
2021/09/26 08:10:53;;;;;;;9.82;7.55;;;;;;;22.41;50.18;100369.91;4331945;33;34301;-88
2021/09/26 08:13:21;;;;;;;12.80;8.65;;;;;;;22.33;50.53;100373.78;4320164;33;34389;-90
2021/09/26 08:15:48;;;;;;;11.30;8.20;;;;;;;22.69;49.67;100378.53;4332204;33;34602;-93
2021/09/26 08:18:16;;;;;;;10.00;8.15;;;;;;;22.99;48.84;100373.72;4332166;33;33623;-94
2021/09/26 08:20:44;;;;;;;8.98;7.95;;;;;;;23.08;48.33;100370.72;4319958;33;33837;-92
2021/09/26 08:23:11;;;;;;;12.95;8.32;;;;;;;23.04;48.51;100370.88;4332740;33;33996;-95
2021/09/26 08:25:41;;;;;;;9.65;7.97;;;;;;;23.16;47.93;100373.88;4319990;33;34027;-90
2021/09/26 08:28:08;;;;;;;10.07;8.27;;;;;;;23.23;48.21;100364.72;4331756;33;34200;-88
2021/09/26 08:30:36;;;;;;;8.70;7.37;;;;;;;23.19;48.01;100371.12;4319825;33;34339;-86
2021/09/26 08:33:03;;;;;;;8.98;7.45;;;;;;;23.17;48.29;100372.97;4331959;33;33538;-87
2021/09/26 08:35:31;;;;;;;10.32;7.87;;;;;;;23.24;48.48;100366.47;4320027;33;34037;-87
2021/09/26 08:37:58;;;;;;;13.35;8.73;;;;;;;23.26;47.81;100359.31;4332095;33;33406;-87
2021/09/26 08:40:26;;;;;;;12.40;8.20;;;;;;;23.21;48.24;100371.91;4333398;33;33288;-87
2021/09/26 08:42:54;;;;;;;10.45;8.25;;;;;;;23.43;47.78;100364.78;4319984;33;34110;-88
2021/09/26 08:45:22;;;;;;;10.45;7.95;;;;;;;23.49;47.26;100371.59;4319395;33;35210;-88
2021/09/26 08:47:50;;;;;;;11.12;8.27;;;;;;;23.40;47.58;100359.59;4331342;33;33547;-91
2021/09/26 08:50:20;;;;;;;11.18;9.05;;;;;;;23.40;47.75;100359.59;4319472;33;33469;-92
2021/09/26 08:52:47;;;;;;;11.82;8.95;;;;;;;23.40;47.10;100361.38;4331914;33;34703;-92
2021/09/26 08:55:17;;;;;;;10.65;8.18;;;;;;;23.27;47.93;100355.69;4331758;33;34072;-94
2021/09/26 08:57:44;;;;;;;10.27;8.25;;;;;;;23.55;47.26;100356.28;4319938;33;34374;-90
2021/09/26 09:00:14;;;;;;;11.82;8.48;;;;;;;23.75;46.75;100357.19;4331519;33;33284;-91
2021/09/26 09:02:45;;;;;;;10.88;8.35;;;;;;;23.87;46.41;100348.63;4320609;33;34308;-90
2021/09/26 09:05:27;;;;;;;10.95;8.30;;;;;;;23.91;46.63;100355.53;4333239;33;34729;-94
2021/09/26 09:08:03;;;;;;;10.63;8.13;;;;;;;24.14;45.94;100358.87;4321645;33;34085;-94
2021/09/26 09:10:41;;;;;;;11.52;8.60;;;;;;;23.98;46.20;100349.00;4325529;33;32985;-92
2021/09/26 09:13:36;;;;;;;11.57;8.23;;;;;;;24.13;45.71;100354.50;4345841;33;34974;-95
2021/09/26 09:16:18;;;;;;;12.45;8.38;;;;;;;24.32;45.89;100357.12;4293317;33;34713;-96
2021/09/26 09:19:22;;;;;;;15.07;8.95;;;;;;;24.30;45.75;100359.00;4261696;33;33726;-96
2021/09/26 09:22:06;;;;;;;9.95;8.35;;;;;;;24.46;45.01;100356.50;4289086;33;32805;-91
2021/09/26 09:24:39;;;;;;;9.45;8.35;;;;;;;24.63;44.67;100361.84;4290349;33;34307;-94
2021/09/26 09:27:07;;;;;;;10.02;8.68;;;;;;;24.28;45.54;100358.22;4278986;33;33935;-95
2021/09/26 09:30:07;;;;;;;10.20;8.82;;;;;;;24.43;45.41;100354.84;4289333;33;33819;-94
2021/09/26 09:32:35;;;;;;;12.98;9.25;;;;;;;24.29;45.41;100359.97;4310496;33;33090;-94
2021/09/26 09:35:53;;;;;;;14.23;9.25;;;;;;;24.34;45.53;100351.78;4306968;33;34439;-91
2021/09/26 09:38:28;;;;;;;11.73;7.90;;;;;;;24.16;46.34;100349.03;4304192;33;34198;-92
2021/09/26 09:40:56;;;;;;;10.57;8.02;;;;;;;24.39;45.80;100339.13;4304258;33;33194;-91
2021/09/26 09:43:27;;;;;;;11.85;8.20;;;;;;;24.46;45.58;100345.87;4291552;33;32845;-91
2021/09/26 09:45:56;;;;;;;11.68;8.75;;;;;;;24.48;45.49;100344.00;4303409;33;33774;-90
2021/09/26 09:48:30;;;;;;;13.80;8.68;;;;;;;24.62;45.46;100353.03;4291142;33;34482;-91
2021/09/26 09:51:02;;;;;;;9.90;7.47;;;;;;;24.56;45.48;100341.81;4302695;33;34456;-91
2021/09/26 09:53:47;;;;;;;10.07;7.97;;;;;;;24.64;45.37;100342.31;4302772;33;32914;-92
2021/09/26 09:56:26;;;;;;;12.00;8.93;;;;;;;24.80;44.86;100341.50;4302806;33;34397;-92
2021/09/26 09:58:58;;;;;;;10.45;8.38;;;;;;;24.94;44.28;100335.47;4303243;33;34046;-93
2021/09/26 10:01:37;;;;;;;13.15;8.57;;;;;;;24.95;44.86;100341.66;4302807;33;34209;-92
2021/09/26 10:04:09;;;;;;;10.27;8.02;;;;;;;24.84;44.96;100343.06;4302969;33;33757;-92
2021/09/26 10:06:40;;;;;;;18.40;8.73;;;;;;;24.64;45.33;100340.50;4290807;33;34470;-92
2021/09/26 10:09:28;;;;;;;11.12;8.35;;;;;;;25.08;44.42;100330.31;4302501;33;33858;-92
2021/09/26 10:11:58;;;;;;;10.10;7.43;;;;;;;24.98;44.60;100334.41;4290245;33;33427;-94
2021/09/26 10:14:33;;;;;;;10.27;8.68;;;;;;;25.10;45.04;100327.59;4302225;33;33785;-86
2021/09/26 10:17:03;;;;;;;10.65;8.30;;;;;;;25.23;44.72;100318.03;4301449;33;33809;-86
2021/09/26 10:19:34;;;;;;;11.75;7.97;;;;;;;25.33;44.22;100311.28;4301529;33;34596;-87
2021/09/26 10:22:04;;;;;;;12.43;7.82;;;;;;;25.16;44.68;100309.50;4302029;33;34623;-89
2021/09/26 10:24:34;;;;;;;8.88;7.25;;;;;;;25.55;43.81;100302.09;4302054;33;33665;-88
